sensor_id;sensor_type;location;lat;lon;timestamp;P1;durP1;ratioP1;P2;durP2;ratioP2
74799;SDS011;63326;45.088;7.658;2023-04-06T00:00:13;8.73;;;3.45;;
74799;SDS011;63326;45.088;7.658;2023-04-06T00:02:40;7.65;;;3.80;;
74799;SDS011;63326;45.088;7.658;2023-04-06T00:05:07;7.30;;;4.03;;
74799;SDS011;63326;45.088;7.658;2023-04-06T00:07:34;8.38;;;3.05;;
74799;SDS011;63326;45.088;7.658;2023-04-06T00:10:01;6.00;;;3.00;;
74799;SDS011;63326;45.088;7.658;2023-04-06T00:12:28;7.60;;;4.65;;
74799;SDS011;63326;45.088;7.658;2023-04-06T00:14:55;4.88;;;2.97;;
74799;SDS011;63326;45.088;7.658;2023-04-06T00:17:22;6.32;;;3.85;;
74799;SDS011;63326;45.088;7.658;2023-04-06T00:19:48;9.00;;;4.10;;
74799;SDS011;63326;45.088;7.658;2023-04-06T00:22:15;8.25;;;4.85;;
74799;SDS011;63326;45.088;7.658;2023-04-06T00:24:42;7.38;;;4.28;;
74799;SDS011;63326;45.088;7.658;2023-04-06T00:27:08;5.45;;;4.10;;
74799;SDS011;63326;45.088;7.658;2023-04-06T00:29:35;6.05;;;3.55;;
74799;SDS011;63326;45.088;7.658;2023-04-06T00:32:01;10.13;;;3.15;;
74799;SDS011;63326;45.088;7.658;2023-04-06T00:34:28;7.93;;;4.32;;
74799;SDS011;63326;45.088;7.658;2023-04-06T00:36:55;5.85;;;3.17;;
74799;SDS011;63326;45.088;7.658;2023-04-06T00:39:22;9.32;;;3.67;;
74799;SDS011;63326;45.088;7.658;2023-04-06T00:41:49;5.95;;;3.78;;
74799;SDS011;63326;45.088;7.658;2023-04-06T00:44:18;6.80;;;3.15;;
74799;SDS011;63326;45.088;7.658;2023-04-06T00:46:45;7.63;;;3.50;;
74799;SDS011;63326;45.088;7.658;2023-04-06T00:49:12;7.15;;;3.60;;
74799;SDS011;63326;45.088;7.658;2023-04-06T00:51:39;5.82;;;3.40;;
74799;SDS011;63326;45.088;7.658;2023-04-06T00:54:06;8.10;;;3.60;;
74799;SDS011;63326;45.088;7.658;2023-04-06T00:56:34;8.23;;;3.20;;
74799;SDS011;63326;45.088;7.658;2023-04-06T00:59:02;6.68;;;3.28;;
74799;SDS011;63326;45.088;7.658;2023-04-06T01:01:30;5.63;;;3.00;;
74799;SDS011;63326;45.088;7.658;2023-04-06T01:04:03;6.03;;;3.58;;
74799;SDS011;63326;45.088;7.658;2023-04-06T01:06:37;5.78;;;3.28;;
74799;SDS011;63326;45.088;7.658;2023-04-06T01:09:04;5.13;;;2.70;;
74799;SDS011;63326;45.088;7.658;2023-04-06T01:11:31;4.72;;;3.22;;
74799;SDS011;63326;45.088;7.658;2023-04-06T01:14:00;4.78;;;2.80;;
74799;SDS011;63326;45.088;7.658;2023-04-06T01:16:37;9.95;;;4.00;;
74799;SDS011;63326;45.088;7.658;2023-04-06T01:19:16;5.38;;;3.35;;
74799;SDS011;63326;45.088;7.658;2023-04-06T01:21:47;7.57;;;4.05;;
74799;SDS011;63326;45.088;7.658;2023-04-06T01:24:24;7.30;;;4.70;;
74799;SDS011;63326;45.088;7.658;2023-04-06T01:26:59;5.85;;;3.10;;
74799;SDS011;63326;45.088;7.658;2023-04-06T01:29:35;6.03;;;2.70;;
74799;SDS011;63326;45.088;7.658;2023-04-06T01:32:05;4.57;;;3.22;;
74799;SDS011;63326;45.088;7.658;2023-04-06T01:34:38;5.90;;;2.65;;
74799;SDS011;63326;45.088;7.658;2023-04-06T01:39:33;6.05;;;3.17;;
74799;SDS011;63326;45.088;7.658;2023-04-06T01:42:02;9.35;;;3.63;;
74799;SDS011;63326;45.088;7.658;2023-04-06T01:44:31;4.05;;;2.55;;
74799;SDS011;63326;45.088;7.658;2023-04-06T01:47:06;7.10;;;3.28;;
74799;SDS011;63326;45.088;7.658;2023-04-06T01:49:33;5.53;;;3.15;;
74799;SDS011;63326;45.088;7.658;2023-04-06T01:52:01;6.55;;;3.30;;
74799;SDS011;63326;45.088;7.658;2023-04-06T01:54:29;4.90;;;2.78;;
74799;SDS011;63326;45.088;7.658;2023-04-06T01:57:05;5.60;;;3.47;;
74799;SDS011;63326;45.088;7.658;2023-04-06T02:00:00;3.78;;;2.42;;
74799;SDS011;63326;45.088;7.658;2023-04-06T02:02:38;5.40;;;2.30;;
74799;SDS011;63326;45.088;7.658;2023-04-06T02:05:11;6.82;;;2.92;;
74799;SDS011;63326;45.088;7.658;2023-04-06T02:07:39;4.70;;;2.85;;
74799;SDS011;63326;45.088;7.658;2023-04-06T02:10:11;6.90;;;3.35;;
74799;SDS011;63326;45.088;7.658;2023-04-06T02:12:39;7.60;;;3.55;;
74799;SDS011;63326;45.088;7.658;2023-04-06T02:15:09;5.18;;;2.33;;
74799;SDS011;63326;45.088;7.658;2023-04-06T02:17:36;6.78;;;3.80;;
74799;SDS011;63326;45.088;7.658;2023-04-06T02:20:03;6.90;;;3.17;;
74799;SDS011;63326;45.088;7.658;2023-04-06T02:22:30;5.60;;;3.60;;
74799;SDS011;63326;45.088;7.658;2023-04-06T02:24:58;6.13;;;2.67;;
74799;SDS011;63326;45.088;7.658;2023-04-06T02:27:25;4.32;;;2.63;;
74799;SDS011;63326;45.088;7.658;2023-04-06T02:29:51;5.85;;;2.53;;
74799;SDS011;63326;45.088;7.658;2023-04-06T02:32:19;5.55;;;3.55;;
74799;SDS011;63326;45.088;7.658;2023-04-06T02:34:46;4.55;;;2.80;;
74799;SDS011;63326;45.088;7.658;2023-04-06T02:37:15;7.32;;;2.83;;
74799;SDS011;63326;45.088;7.658;2023-04-06T02:39:41;4.15;;;2.90;;
74799;SDS011;63326;45.088;7.658;2023-04-06T02:42:08;6.82;;;3.67;;
74799;SDS011;63326;45.088;7.658;2023-04-06T02:44:35;6.20;;;3.85;;
74799;SDS011;63326;45.088;7.658;2023-04-06T02:47:02;6.60;;;4.20;;
74799;SDS011;63326;45.088;7.658;2023-04-06T02:49:29;6.57;;;3.05;;
74799;SDS011;63326;45.088;7.658;2023-04-06T02:51:57;3.25;;;2.80;;
74799;SDS011;63326;45.088;7.658;2023-04-06T02:54:31;4.68;;;2.97;;
74799;SDS011;63326;45.088;7.658;2023-04-06T02:56:59;7.53;;;3.22;;
74799;SDS011;63326;45.088;7.658;2023-04-06T02:59:34;4.50;;;2.63;;
74799;SDS011;63326;45.088;7.658;2023-04-06T03:02:09;5.15;;;2.63;;
74799;SDS011;63326;45.088;7.658;2023-04-06T03:04:36;9.82;;;2.72;;
74799;SDS011;63326;45.088;7.658;2023-04-06T03:07:06;5.15;;;2.90;;
74799;SDS011;63326;45.088;7.658;2023-04-06T03:09:36;3.45;;;1.75;;
74799;SDS011;63326;45.088;7.658;2023-04-06T03:12:04;9.07;;;3.53;;
74799;SDS011;63326;45.088;7.658;2023-04-06T03:14:46;6.60;;;2.60;;
74799;SDS011;63326;45.088;7.658;2023-04-06T03:17:12;5.15;;;3.05;;
74799;SDS011;63326;45.088;7.658;2023-04-06T03:19:39;4.93;;;2.88;;
74799;SDS011;63326;45.088;7.658;2023-04-06T03:22:08;5.55;;;2.65;;
74799;SDS011;63326;45.088;7.658;2023-04-06T03:24:35;8.52;;;2.97;;
74799;SDS011;63326;45.088;7.658;2023-04-06T03:27:02;3.17;;;1.80;;
74799;SDS011;63326;45.088;7.658;2023-04-06T03:29:30;5.32;;;2.72;;
74799;SDS011;63326;45.088;7.658;2023-04-06T03:31:57;4.57;;;2.47;;
74799;SDS011;63326;45.088;7.658;2023-04-06T03:34:35;3.45;;;2.17;;
74799;SDS011;63326;45.088;7.658;2023-04-06T03:37:01;2.45;;;1.67;;
74799;SDS011;63326;45.088;7.658;2023-04-06T03:39:39;3.88;;;2.47;;
74799;SDS011;63326;45.088;7.658;2023-04-06T03:42:06;4.95;;;2.85;;
74799;SDS011;63326;45.088;7.658;2023-04-06T03:44:35;5.07;;;3.08;;
74799;SDS011;63326;45.088;7.658;2023-04-06T03:47:03;4.18;;;2.33;;
74799;SDS011;63326;45.088;7.658;2023-04-06T03:49:29;3.45;;;1.70;;
74799;SDS011;63326;45.088;7.658;2023-04-06T03:51:57;6.22;;;2.85;;
74799;SDS011;63326;45.088;7.658;2023-04-06T03:54:24;6.28;;;2.70;;
74799;SDS011;63326;45.088;7.658;2023-04-06T03:56:51;4.55;;;2.75;;
74799;SDS011;63326;45.088;7.658;2023-04-06T03:59:17;6.95;;;2.42;;
74799;SDS011;63326;45.088;7.658;2023-04-06T04:01:44;3.40;;;2.30;;
74799;SDS011;63326;45.088;7.658;2023-04-06T04:04:11;8.88;;;3.10;;
74799;SDS011;63326;45.088;7.658;2023-04-06T04:06:37;5.15;;;2.97;;
74799;SDS011;63326;45.088;7.658;2023-04-06T04:09:06;4.97;;;2.53;;
74799;SDS011;63326;45.088;7.658;2023-04-06T04:11:33;5.15;;;2.78;;
74799;SDS011;63326;45.088;7.658;2023-04-06T04:14:00;7.50;;;3.05;;
74799;SDS011;63326;45.088;7.658;2023-04-06T04:16:27;5.05;;;2.58;;
74799;SDS011;63326;45.088;7.658;2023-04-06T04:18:55;8.20;;;3.05;;
74799;SDS011;63326;45.088;7.658;2023-04-06T04:21:24;4.72;;;2.85;;
74799;SDS011;63326;45.088;7.658;2023-04-06T04:23:52;4.65;;;2.10;;
74799;SDS011;63326;45.088;7.658;2023-04-06T04:26:18;7.00;;;3.38;;
74799;SDS011;63326;45.088;7.658;2023-04-06T04:28:46;5.18;;;2.55;;
74799;SDS011;63326;45.088;7.658;2023-04-06T04:31:14;4.47;;;2.78;;
74799;SDS011;63326;45.088;7.658;2023-04-06T04:33:40;5.68;;;3.17;;
74799;SDS011;63326;45.088;7.658;2023-04-06T04:36:12;4.15;;;2.60;;
74799;SDS011;63326;45.088;7.658;2023-04-06T04:38:41;4.30;;;2.75;;
74799;SDS011;63326;45.088;7.658;2023-04-06T04:41:09;4.13;;;2.88;;
74799;SDS011;63326;45.088;7.658;2023-04-06T04:43:39;5.13;;;3.00;;
74799;SDS011;63326;45.088;7.658;2023-04-06T04:46:05;4.90;;;3.38;;
74799;SDS011;63326;45.088;7.658;2023-04-06T04:48:37;3.92;;;2.30;;
74799;SDS011;63326;45.088;7.658;2023-04-06T04:51:06;4.88;;;2.80;;
74799;SDS011;63326;45.088;7.658;2023-04-06T04:53:46;4.03;;;2.78;;
74799;SDS011;63326;45.088;7.658;2023-04-06T04:56:21;10.02;;;4.05;;
74799;SDS011;63326;45.088;7.658;2023-04-06T04:58:52;7.97;;;2.75;;
74799;SDS011;63326;45.088;7.658;2023-04-06T05:01:20;3.47;;;1.92;;
74799;SDS011;63326;45.088;7.658;2023-04-06T05:03:47;4.57;;;3.00;;
74799;SDS011;63326;45.088;7.658;2023-04-06T05:06:16;6.53;;;3.95;;
74799;SDS011;63326;45.088;7.658;2023-04-06T05:08:43;5.78;;;3.03;;
74799;SDS011;63326;45.088;7.658;2023-04-06T05:11:09;5.50;;;3.25;;
74799;SDS011;63326;45.088;7.658;2023-04-06T05:13:42;6.70;;;2.63;;
74799;SDS011;63326;45.088;7.658;2023-04-06T05:16:14;3.97;;;2.15;;
74799;SDS011;63326;45.088;7.658;2023-04-06T05:18:41;4.53;;;3.88;;
74799;SDS011;63326;45.088;7.658;2023-04-06T05:21:09;5.00;;;2.40;;
74799;SDS011;63326;45.088;7.658;2023-04-06T05:23:49;6.78;;;3.28;;
74799;SDS011;63326;45.088;7.658;2023-04-06T05:26:16;5.38;;;3.00;;
74799;SDS011;63326;45.088;7.658;2023-04-06T05:28:43;7.90;;;3.58;;
74799;SDS011;63326;45.088;7.658;2023-04-06T05:31:11;7.45;;;3.75;;
74799;SDS011;63326;45.088;7.658;2023-04-06T05:33:45;8.07;;;3.65;;
74799;SDS011;63326;45.088;7.658;2023-04-06T05:36:14;5.00;;;2.35;;
74799;SDS011;63326;45.088;7.658;2023-04-06T05:38:44;7.57;;;3.40;;
74799;SDS011;63326;45.088;7.658;2023-04-06T05:41:34;5.65;;;2.83;;
74799;SDS011;63326;45.088;7.658;2023-04-06T05:44:00;5.55;;;3.25;;
74799;SDS011;63326;45.088;7.658;2023-04-06T05:46:28;3.85;;;2.15;;
74799;SDS011;63326;45.088;7.658;2023-04-06T05:48:57;8.68;;;5.00;;
74799;SDS011;63326;45.088;7.658;2023-04-06T05:51:27;5.68;;;3.30;;
74799;SDS011;63326;45.088;7.658;2023-04-06T05:53:54;5.63;;;3.45;;
74799;SDS011;63326;45.088;7.658;2023-04-06T05:56:21;3.63;;;2.00;;
74799;SDS011;63326;45.088;7.658;2023-04-06T05:58:48;3.72;;;2.78;;
74799;SDS011;63326;45.088;7.658;2023-04-06T06:01:20;6.63;;;3.10;;
74799;SDS011;63326;45.088;7.658;2023-04-06T06:03:47;12.05;;;3.90;;
74799;SDS011;63326;45.088;7.658;2023-04-06T06:06:15;10.95;;;4.45;;
74799;SDS011;63326;45.088;7.658;2023-04-06T06:09:05;7.22;;;3.40;;
74799;SDS011;63326;45.088;7.658;2023-04-06T06:11:36;6.43;;;3.55;;
74799;SDS011;63326;45.088;7.658;2023-04-06T06:14:04;4.50;;;3.90;;
74799;SDS011;63326;45.088;7.658;2023-04-06T06:16:34;7.65;;;3.85;;
74799;SDS011;63326;45.088;7.658;2023-04-06T06:19:01;4.88;;;2.60;;
74799;SDS011;63326;45.088;7.658;2023-04-06T06:21:29;9.02;;;4.05;;
74799;SDS011;63326;45.088;7.658;2023-04-06T06:23:57;9.15;;;3.45;;
74799;SDS011;63326;45.088;7.658;2023-04-06T06:26:24;3.53;;;2.58;;
74799;SDS011;63326;45.088;7.658;2023-04-06T06:28:51;5.63;;;3.47;;
74799;SDS011;63326;45.088;7.658;2023-04-06T06:31:17;7.63;;;2.92;;
74799;SDS011;63326;45.088;7.658;2023-04-06T06:33:48;6.55;;;3.42;;
74799;SDS011;63326;45.088;7.658;2023-04-06T06:36:19;7.03;;;3.45;;
74799;SDS011;63326;45.088;7.658;2023-04-06T06:38:46;14.02;;;4.30;;
74799;SDS011;63326;45.088;7.658;2023-04-06T06:41:15;5.93;;;3.05;;
74799;SDS011;63326;45.088;7.658;2023-04-06T06:43:42;8.13;;;4.70;;
74799;SDS011;63326;45.088;7.658;2023-04-06T06:48:39;6.60;;;2.45;;
74799;SDS011;63326;45.088;7.658;2023-04-06T06:51:06;6.43;;;2.83;;
74799;SDS011;63326;45.088;7.658;2023-04-06T06:53:32;7.60;;;5.00;;
74799;SDS011;63326;45.088;7.658;2023-04-06T06:55:59;7.95;;;3.10;;
74799;SDS011;63326;45.088;7.658;2023-04-06T06:58:26;6.47;;;2.88;;
74799;SDS011;63326;45.088;7.658;2023-04-06T07:00:58;7.47;;;3.35;;
74799;SDS011;63326;45.088;7.658;2023-04-06T07:03:28;8.45;;;4.40;;
74799;SDS011;63326;45.088;7.658;2023-04-06T07:05:55;5.07;;;2.83;;
74799;SDS011;63326;45.088;7.658;2023-04-06T07:08:24;7.82;;;3.33;;
74799;SDS011;63326;45.088;7.658;2023-04-06T07:10:51;8.32;;;3.60;;
74799;SDS011;63326;45.088;7.658;2023-04-06T07:15:52;12.18;;;2.97;;
74799;SDS011;63326;45.088;7.658;2023-04-06T07:18:19;6.22;;;3.03;;
74799;SDS011;63326;45.088;7.658;2023-04-06T07:20:47;5.63;;;3.78;;
74799;SDS011;63326;45.088;7.658;2023-04-06T07:25:41;5.68;;;2.75;;
74799;SDS011;63326;45.088;7.658;2023-04-06T07:28:08;7.55;;;2.90;;
74799;SDS011;63326;45.088;7.658;2023-04-06T07:30:36;8.15;;;3.67;;
74799;SDS011;63326;45.088;7.658;2023-04-06T07:33:04;5.38;;;2.65;;
74799;SDS011;63326;45.088;7.658;2023-04-06T07:35:34;5.43;;;3.42;;
74799;SDS011;63326;45.088;7.658;2023-04-06T07:38:03;5.95;;;3.85;;
74799;SDS011;63326;45.088;7.658;2023-04-06T07:40:31;10.68;;;3.53;;
74799;SDS011;63326;45.088;7.658;2023-04-06T07:43:00;8.75;;;3.75;;
74799;SDS011;63326;45.088;7.658;2023-04-06T07:45:28;6.25;;;3.88;;
74799;SDS011;63326;45.088;7.658;2023-04-06T07:47:55;11.10;;;4.45;;
74799;SDS011;63326;45.088;7.658;2023-04-06T07:50:24;5.65;;;3.63;;
74799;SDS011;63326;45.088;7.658;2023-04-06T07:52:52;7.38;;;4.22;;
74799;SDS011;63326;45.088;7.658;2023-04-06T07:55:19;7.22;;;4.18;;
74799;SDS011;63326;45.088;7.658;2023-04-06T07:57:46;7.07;;;3.30;;
74799;SDS011;63326;45.088;7.658;2023-04-06T08:00:13;6.30;;;3.22;;
74799;SDS011;63326;45.088;7.658;2023-04-06T08:02:40;7.30;;;4.20;;
74799;SDS011;63326;45.088;7.658;2023-04-06T08:05:06;8.20;;;4.38;;
74799;SDS011;63326;45.088;7.658;2023-04-06T08:07:33;7.82;;;4.07;;
74799;SDS011;63326;45.088;7.658;2023-04-06T08:10:02;10.95;;;4.70;;
74799;SDS011;63326;45.088;7.658;2023-04-06T08:12:29;8.45;;;3.88;;
74799;SDS011;63326;45.088;7.658;2023-04-06T08:14:56;7.25;;;4.05;;
74799;SDS011;63326;45.088;7.658;2023-04-06T08:17:23;6.95;;;4.20;;
74799;SDS011;63326;45.088;7.658;2023-04-06T08:19:49;6.97;;;3.67;;
74799;SDS011;63326;45.088;7.658;2023-04-06T08:22:16;7.40;;;4.72;;
74799;SDS011;63326;45.088;7.658;2023-04-06T08:24:43;7.22;;;4.28;;
74799;SDS011;63326;45.088;7.658;2023-04-06T08:27:09;8.68;;;5.25;;
74799;SDS011;63326;45.088;7.658;2023-04-06T08:29:36;8.10;;;4.65;;
74799;SDS011;63326;45.088;7.658;2023-04-06T08:32:03;9.93;;;5.10;;
74799;SDS011;63326;45.088;7.658;2023-04-06T08:34:34;7.32;;;4.78;;
74799;SDS011;63326;45.088;7.658;2023-04-06T08:37:01;7.25;;;4.22;;
74799;SDS011;63326;45.088;7.658;2023-04-06T08:39:28;6.65;;;3.90;;
74799;SDS011;63326;45.088;7.658;2023-04-06T08:41:57;7.20;;;4.35;;
74799;SDS011;63326;45.088;7.658;2023-04-06T08:44:26;7.07;;;3.95;;
74799;SDS011;63326;45.088;7.658;2023-04-06T08:46:53;9.73;;;4.57;;
74799;SDS011;63326;45.088;7.658;2023-04-06T08:49:21;7.70;;;4.70;;
74799;SDS011;63326;45.088;7.658;2023-04-06T08:51:48;7.35;;;4.72;;
74799;SDS011;63326;45.088;7.658;2023-04-06T08:54:15;7.10;;;4.18;;
74799;SDS011;63326;45.088;7.658;2023-04-06T08:56:42;11.93;;;4.63;;
74799;SDS011;63326;45.088;7.658;2023-04-06T08:59:09;8.35;;;4.55;;
74799;SDS011;63326;45.088;7.658;2023-04-06T09:01:39;7.07;;;4.70;;
74799;SDS011;63326;45.088;7.658;2023-04-06T09:04:09;7.97;;;4.47;;
74799;SDS011;63326;45.088;7.658;2023-04-06T09:06:39;8.55;;;4.47;;
74799;SDS011;63326;45.088;7.658;2023-04-06T09:09:07;7.15;;;4.50;;
74799;SDS011;63326;45.088;7.658;2023-04-06T09:11:49;8.02;;;4.40;;
74799;SDS011;63326;45.088;7.658;2023-04-06T09:14:32;7.22;;;4.43;;
74799;SDS011;63326;45.088;7.658;2023-04-06T09:17:03;6.38;;;3.78;;
74799;SDS011;63326;45.088;7.658;2023-04-06T09:19:31;7.85;;;4.88;;
74799;SDS011;63326;45.088;7.658;2023-04-06T09:22:04;7.38;;;4.75;;
74799;SDS011;63326;45.088;7.658;2023-04-06T09:24:46;8.55;;;4.47;;
74799;SDS011;63326;45.088;7.658;2023-04-06T09:27:16;8.60;;;4.20;;
74799;SDS011;63326;45.088;7.658;2023-04-06T09:29:44;7.78;;;4.95;;
74799;SDS011;63326;45.088;7.658;2023-04-06T09:32:11;9.98;;;4.82;;
74799;SDS011;63326;45.088;7.658;2023-04-06T09:34:38;7.78;;;4.45;;
74799;SDS011;63326;45.088;7.658;2023-04-06T09:37:15;9.93;;;5.00;;
74799;SDS011;63326;45.088;7.658;2023-04-06T09:39:42;10.38;;;5.55;;
74799;SDS011;63326;45.088;7.658;2023-04-06T09:42:09;8.00;;;4.78;;
74799;SDS011;63326;45.088;7.658;2023-04-06T09:44:36;9.70;;;5.45;;
74799;SDS011;63326;45.088;7.658;2023-04-06T09:47:04;8.05;;;5.35;;
74799;SDS011;63326;45.088;7.658;2023-04-06T09:49:33;7.47;;;5.15;;
74799;SDS011;63326;45.088;7.658;2023-04-06T09:52:02;11.32;;;5.60;;
74799;SDS011;63326;45.088;7.658;2023-04-06T09:54:32;7.07;;;5.20;;
74799;SDS011;63326;45.088;7.658;2023-04-06T09:59:48;9.57;;;6.28;;
74799;SDS011;63326;45.088;7.658;2023-04-06T10:03:07;8.70;;;5.95;;
74799;SDS011;63326;45.088;7.658;2023-04-06T10:08:39;8.50;;;5.15;;
74799;SDS011;63326;45.088;7.658;2023-04-06T10:11:08;10.10;;;5.50;;
74799;SDS011;63326;45.088;7.658;2023-04-06T10:13:36;11.20;;;5.85;;
74799;SDS011;63326;45.088;7.658;2023-04-06T10:16:03;8.23;;;5.43;;
74799;SDS011;63326;45.088;7.658;2023-04-06T10:18:30;10.43;;;6.32;;
74799;SDS011;63326;45.088;7.658;2023-04-06T10:21:00;8.77;;;5.72;;
74799;SDS011;63326;45.088;7.658;2023-04-06T10:23:38;9.75;;;6.40;;
74799;SDS011;63326;45.088;7.658;2023-04-06T10:26:12;8.40;;;5.88;;
74799;SDS011;63326;45.088;7.658;2023-04-06T10:28:41;12.05;;;6.38;;
74799;SDS011;63326;45.088;7.658;2023-04-06T10:31:08;10.40;;;5.88;;
74799;SDS011;63326;45.088;7.658;2023-04-06T10:33:35;10.27;;;7.28;;
74799;SDS011;63326;45.088;7.658;2023-04-06T10:36:14;8.63;;;6.13;;
74799;SDS011;63326;45.088;7.658;2023-04-06T10:38:53;9.68;;;6.75;;
74799;SDS011;63326;45.088;7.658;2023-04-06T10:41:22;11.80;;;7.10;;
74799;SDS011;63326;45.088;7.658;2023-04-06T10:43:55;10.30;;;6.82;;
74799;SDS011;63326;45.088;7.658;2023-04-06T10:46:26;11.45;;;7.40;;
74799;SDS011;63326;45.088;7.658;2023-04-06T10:48:54;11.23;;;6.88;;
74799;SDS011;63326;45.088;7.658;2023-04-06T10:51:25;11.18;;;6.32;;
74799;SDS011;63326;45.088;7.658;2023-04-06T10:53:57;10.98;;;7.15;;
74799;SDS011;63326;45.088;7.658;2023-04-06T10:56:24;12.07;;;6.50;;
74799;SDS011;63326;45.088;7.658;2023-04-06T10:58:54;17.77;;;7.13;;
74799;SDS011;63326;45.088;7.658;2023-04-06T11:01:24;11.20;;;6.45;;
74799;SDS011;63326;45.088;7.658;2023-04-06T11:03:55;9.00;;;5.85;;
74799;SDS011;63326;45.088;7.658;2023-04-06T11:06:25;10.40;;;5.93;;
74799;SDS011;63326;45.088;7.658;2023-04-06T11:08:53;11.65;;;6.70;;
74799;SDS011;63326;45.088;7.658;2023-04-06T11:11:21;10.60;;;6.50;;
74799;SDS011;63326;45.088;7.658;2023-04-06T11:13:58;12.20;;;7.15;;
74799;SDS011;63326;45.088;7.658;2023-04-06T11:16:28;8.48;;;5.80;;
74799;SDS011;63326;45.088;7.658;2023-04-06T11:24:08;12.05;;;6.15;;
74799;SDS011;63326;45.088;7.658;2023-04-06T11:26:39;11.07;;;5.32;;
74799;SDS011;63326;45.088;7.658;2023-04-06T11:29:12;8.68;;;4.43;;
74799;SDS011;63326;45.088;7.658;2023-04-06T11:31:46;11.90;;;5.68;;
74799;SDS011;63326;45.088;7.658;2023-04-06T11:34:21;9.73;;;5.18;;
74799;SDS011;63326;45.088;7.658;2023-04-06T11:36:53;12.57;;;5.38;;
74799;SDS011;63326;45.088;7.658;2023-04-06T11:39:25;11.10;;;5.65;;
74799;SDS011;63326;45.088;7.658;2023-04-06T11:41:54;9.90;;;5.35;;
74799;SDS011;63326;45.088;7.658;2023-04-06T11:44:34;11.32;;;5.45;;
74799;SDS011;63326;45.088;7.658;2023-04-06T11:47:06;11.32;;;5.45;;
74799;SDS011;63326;45.088;7.658;2023-04-06T11:49:37;8.85;;;5.60;;
74799;SDS011;63326;45.088;7.658;2023-04-06T11:52:14;11.63;;;5.68;;
74799;SDS011;63326;45.088;7.658;2023-04-06T11:54:42;12.02;;;5.97;;
74799;SDS011;63326;45.088;7.658;2023-04-06T11:57:09;13.57;;;5.40;;
74799;SDS011;63326;45.088;7.658;2023-04-06T11:59:35;12.80;;;5.90;;
74799;SDS011;63326;45.088;7.658;2023-04-06T12:02:03;14.05;;;5.55;;
74799;SDS011;63326;45.088;7.658;2023-04-06T12:06:57;10.57;;;4.65;;
74799;SDS011;63326;45.088;7.658;2023-04-06T12:09:25;11.80;;;4.93;;
74799;SDS011;63326;45.088;7.658;2023-04-06T12:11:51;9.00;;;5.22;;
74799;SDS011;63326;45.088;7.658;2023-04-06T12:14:18;10.82;;;5.93;;
74799;SDS011;63326;45.088;7.658;2023-04-06T12:16:45;8.05;;;4.88;;
74799;SDS011;63326;45.088;7.658;2023-04-06T12:19:12;12.70;;;5.10;;
74799;SDS011;63326;45.088;7.658;2023-04-06T12:21:39;10.70;;;5.43;;
74799;SDS011;63326;45.088;7.658;2023-04-06T12:24:06;7.82;;;5.07;;
74799;SDS011;63326;45.088;7.658;2023-04-06T12:26:33;9.63;;;5.80;;
74799;SDS011;63326;45.088;7.658;2023-04-06T12:29:01;11.38;;;6.60;;
74799;SDS011;63326;45.088;7.658;2023-04-06T12:31:34;11.82;;;6.70;;
74799;SDS011;63326;45.088;7.658;2023-04-06T12:34:02;10.57;;;5.63;;
74799;SDS011;63326;45.088;7.658;2023-04-06T12:38:57;10.52;;;7.10;;
74799;SDS011;63326;45.088;7.658;2023-04-06T12:41:24;11.45;;;6.07;;
74799;SDS011;63326;45.088;7.658;2023-04-06T12:43:51;12.00;;;6.38;;
74799;SDS011;63326;45.088;7.658;2023-04-06T12:46:18;10.35;;;6.50;;
74799;SDS011;63326;45.088;7.658;2023-04-06T12:48:44;10.60;;;6.43;;
74799;SDS011;63326;45.088;7.658;2023-04-06T12:51:11;11.82;;;6.25;;
74799;SDS011;63326;45.088;7.658;2023-04-06T12:53:38;11.70;;;6.97;;
74799;SDS011;63326;45.088;7.658;2023-04-06T12:56:12;11.35;;;6.57;;
74799;SDS011;63326;45.088;7.658;2023-04-06T12:58:41;10.20;;;6.78;;
74799;SDS011;63326;45.088;7.658;2023-04-06T13:01:08;13.90;;;6.47;;
74799;SDS011;63326;45.088;7.658;2023-04-06T13:03:37;10.18;;;6.82;;
74799;SDS011;63326;45.088;7.658;2023-04-06T13:06:03;10.50;;;6.57;;
74799;SDS011;63326;45.088;7.658;2023-04-06T13:08:31;10.68;;;6.70;;
74799;SDS011;63326;45.088;7.658;2023-04-06T13:10:57;11.25;;;6.28;;
74799;SDS011;63326;45.088;7.658;2023-04-06T13:13:25;12.05;;;6.57;;
74799;SDS011;63326;45.088;7.658;2023-04-06T13:15:53;11.57;;;6.25;;
74799;SDS011;63326;45.088;7.658;2023-04-06T13:18:21;10.55;;;6.40;;
74799;SDS011;63326;45.088;7.658;2023-04-06T13:20:49;11.85;;;7.35;;
74799;SDS011;63326;45.088;7.658;2023-04-06T13:23:16;13.05;;;7.25;;
74799;SDS011;63326;45.088;7.658;2023-04-06T13:25:42;14.35;;;8.05;;
74799;SDS011;63326;45.088;7.658;2023-04-06T13:28:10;11.82;;;6.88;;
74799;SDS011;63326;45.088;7.658;2023-04-06T13:30:37;12.95;;;6.93;;
74799;SDS011;63326;45.088;7.658;2023-04-06T13:33:03;10.23;;;5.97;;
74799;SDS011;63326;45.088;7.658;2023-04-06T13:37:57;12.07;;;6.78;;
74799;SDS011;63326;45.088;7.658;2023-04-06T13:40:24;14.15;;;7.25;;
74799;SDS011;63326;45.088;7.658;2023-04-06T13:42:51;12.35;;;6.78;;
74799;SDS011;63326;45.088;7.658;2023-04-06T13:45:18;11.63;;;6.25;;
74799;SDS011;63326;45.088;7.658;2023-04-06T13:47:45;10.88;;;5.97;;
74799;SDS011;63326;45.088;7.658;2023-04-06T13:50:11;10.25;;;6.45;;
74799;SDS011;63326;45.088;7.658;2023-04-06T13:52:38;10.68;;;6.78;;
74799;SDS011;63326;45.088;7.658;2023-04-06T13:55:05;10.15;;;5.95;;
74799;SDS011;63326;45.088;7.658;2023-04-06T13:57:32;11.77;;;6.63;;
74799;SDS011;63326;45.088;7.658;2023-04-06T13:59:59;11.52;;;6.15;;
74799;SDS011;63326;45.088;7.658;2023-04-06T14:02:30;9.70;;;5.40;;
74799;SDS011;63326;45.088;7.658;2023-04-06T14:04:57;9.75;;;6.25;;
74799;SDS011;63326;45.088;7.658;2023-04-06T14:07:24;14.00;;;7.20;;
74799;SDS011;63326;45.088;7.658;2023-04-06T14:09:51;13.57;;;6.38;;
74799;SDS011;63326;45.088;7.658;2023-04-06T14:12:17;11.35;;;6.40;;
74799;SDS011;63326;45.088;7.658;2023-04-06T14:14:44;12.27;;;6.63;;
74799;SDS011;63326;45.088;7.658;2023-04-06T14:17:10;13.02;;;6.47;;
74799;SDS011;63326;45.088;7.658;2023-04-06T14:19:37;10.27;;;5.85;;
74799;SDS011;63326;45.088;7.658;2023-04-06T14:22:04;10.55;;;6.43;;
74799;SDS011;63326;45.088;7.658;2023-04-06T14:24:31;13.48;;;6.47;;
74799;SDS011;63326;45.088;7.658;2023-04-06T14:26:58;16.30;;;7.25;;
74799;SDS011;63326;45.088;7.658;2023-04-06T14:29:25;9.55;;;6.20;;
74799;SDS011;63326;45.088;7.658;2023-04-06T14:31:52;11.25;;;6.00;;
74799;SDS011;63326;45.088;7.658;2023-04-06T14:34:19;12.13;;;6.35;;
74799;SDS011;63326;45.088;7.658;2023-04-06T14:36:45;13.50;;;7.50;;
74799;SDS011;63326;45.088;7.658;2023-04-06T14:39:12;11.18;;;5.75;;
74799;SDS011;63326;45.088;7.658;2023-04-06T14:41:39;12.45;;;6.40;;
74799;SDS011;63326;45.088;7.658;2023-04-06T14:44:06;15.07;;;7.18;;
74799;SDS011;63326;45.088;7.658;2023-04-06T14:46:33;14.65;;;7.20;;
74799;SDS011;63326;45.088;7.658;2023-04-06T14:48:59;10.30;;;6.05;;
74799;SDS011;63326;45.088;7.658;2023-04-06T14:51:26;14.02;;;6.47;;
74799;SDS011;63326;45.088;7.658;2023-04-06T14:53:53;10.00;;;5.57;;
74799;SDS011;63326;45.088;7.658;2023-04-06T14:56:21;10.35;;;6.38;;
74799;SDS011;63326;45.088;7.658;2023-04-06T14:58:49;11.50;;;6.35;;
74799;SDS011;63326;45.088;7.658;2023-04-06T15:01:18;11.38;;;6.60;;
74799;SDS011;63326;45.088;7.658;2023-04-06T15:03:45;10.48;;;6.32;;
74799;SDS011;63326;45.088;7.658;2023-04-06T15:06:14;11.32;;;5.63;;
74799;SDS011;63326;45.088;7.658;2023-04-06T15:08:45;12.65;;;7.25;;
74799;SDS011;63326;45.088;7.658;2023-04-06T15:11:13;14.07;;;7.00;;
74799;SDS011;63326;45.088;7.658;2023-04-06T15:13:40;13.85;;;6.63;;
74799;SDS011;63326;45.088;7.658;2023-04-06T15:16:07;11.38;;;6.72;;
74799;SDS011;63326;45.088;7.658;2023-04-06T15:18:34;13.10;;;7.57;;
74799;SDS011;63326;45.088;7.658;2023-04-06T15:21:02;14.95;;;6.85;;